sensor_id;sensor_type;location;lat;lon;timestamp;P1;durP1;ratioP1;P2;durP2;ratioP2
47812;SDS011;34221;45.296;9.516;2023-03-01T00:00:11;42.83;;;26.20;;
47812;SDS011;34221;45.296;9.516;2023-03-01T00:00:27;39.17;;;25.70;;
47812;SDS011;34221;45.296;9.516;2023-03-01T00:00:41;34.45;;;25.30;;
47812;SDS011;34221;45.296;9.516;2023-03-01T00:01:01;32.80;;;23.75;;
47812;SDS011;34221;45.296;9.516;2023-03-01T00:01:24;34.42;;;25.17;;
47812;SDS011;34221;45.296;9.516;2023-03-01T00:01:42;36.47;;;25.45;;
47812;SDS011;34221;45.296;9.516;2023-03-01T00:01:57;38.10;;;25.47;;
47812;SDS011;34221;45.296;9.516;2023-03-01T00:02:12;36.97;;;25.92;;
47812;SDS011;34221;45.296;9.516;2023-03-01T00:02:27;35.00;;;25.80;;
47812;SDS011;34221;45.296;9.516;2023-03-01T00:02:42;35.97;;;26.15;;
47812;SDS011;34221;45.296;9.516;2023-03-01T00:02:57;36.95;;;26.05;;
47812;SDS011;34221;45.296;9.516;2023-03-01T00:03:12;36.05;;;25.20;;
47812;SDS011;34221;45.296;9.516;2023-03-01T00:03:30;36.60;;;26.13;;
47812;SDS011;34221;45.296;9.516;2023-03-01T00:03:46;34.90;;;24.80;;
47812;SDS011;34221;45.296;9.516;2023-03-01T00:04:01;36.40;;;25.40;;
47812;SDS011;34221;45.296;9.516;2023-03-01T00:04:16;36.38;;;25.73;;
47812;SDS011;34221;45.296;9.516;2023-03-01T00:05:11;35.67;;;24.98;;
47812;SDS011;34221;45.296;9.516;2023-03-01T00:05:26;36.15;;;25.90;;
47812;SDS011;34221;45.296;9.516;2023-03-01T00:05:45;34.92;;;26.15;;
47812;SDS011;34221;45.296;9.516;2023-03-01T00:06:01;37.40;;;26.17;;
47812;SDS011;34221;45.296;9.516;2023-03-01T00:06:37;35.20;;;25.40;;
47812;SDS011;34221;45.296;9.516;2023-03-01T00:06:52;37.00;;;25.38;;
47812;SDS011;34221;45.296;9.516;2023-03-01T00:07:08;40.42;;;26.92;;
47812;SDS011;34221;45.296;9.516;2023-03-01T00:07:23;38.33;;;26.23;;
47812;SDS011;34221;45.296;9.516;2023-03-01T00:07:38;38.47;;;26.00;;
47812;SDS011;34221;45.296;9.516;2023-03-01T00:07:53;39.78;;;26.63;;
47812;SDS011;34221;45.296;9.516;2023-03-01T00:08:08;36.60;;;25.67;;
47812;SDS011;34221;45.296;9.516;2023-03-01T00:08:23;36.60;;;26.02;;
47812;SDS011;34221;45.296;9.516;2023-03-01T00:08:39;36.50;;;26.50;;
47812;SDS011;34221;45.296;9.516;2023-03-01T00:08:54;36.33;;;26.23;;
47812;SDS011;34221;45.296;9.516;2023-03-01T00:09:09;37.33;;;26.30;;
47812;SDS011;34221;45.296;9.516;2023-03-01T00:09:24;37.33;;;26.75;;
47812;SDS011;34221;45.296;9.516;2023-03-01T00:09:39;37.70;;;26.05;;
47812;SDS011;34221;45.296;9.516;2023-03-01T00:09:54;38.08;;;25.33;;
47812;SDS011;34221;45.296;9.516;2023-03-01T00:10:09;36.00;;;25.30;;
47812;SDS011;34221;45.296;9.516;2023-03-01T00:10:25;34.85;;;24.65;;
47812;SDS011;34221;45.296;9.516;2023-03-01T00:10:40;36.45;;;25.45;;
47812;SDS011;34221;45.296;9.516;2023-03-01T00:11:03;37.17;;;25.42;;
47812;SDS011;34221;45.296;9.516;2023-03-01T00:11:23;33.22;;;24.42;;
47812;SDS011;34221;45.296;9.516;2023-03-01T00:11:41;34.78;;;26.25;;
47812;SDS011;34221;45.296;9.516;2023-03-01T00:11:56;36.15;;;26.75;;
47812;SDS011;34221;45.296;9.516;2023-03-01T00:12:11;36.65;;;26.25;;
47812;SDS011;34221;45.296;9.516;2023-03-01T00:12:26;35.65;;;25.65;;
47812;SDS011;34221;45.296;9.516;2023-03-01T00:12:41;36.72;;;26.08;;
47812;SDS011;34221;45.296;9.516;2023-03-01T00:12:56;37.08;;;25.45;;
47812;SDS011;34221;45.296;9.516;2023-03-01T00:13:11;38.05;;;25.52;;
47812;SDS011;34221;45.296;9.516;2023-03-01T00:13:26;37.13;;;25.70;;
47812;SDS011;34221;45.296;9.516;2023-03-01T00:13:42;36.90;;;26.27;;
47812;SDS011;34221;45.296;9.516;2023-03-01T00:13:59;36.80;;;26.83;;
47812;SDS011;34221;45.296;9.516;2023-03-01T00:14:15;37.22;;;25.70;;
47812;SDS011;34221;45.296;9.516;2023-03-01T00:14:31;40.22;;;26.20;;
47812;SDS011;34221;45.296;9.516;2023-03-01T00:14:46;39.08;;;25.38;;
47812;SDS011;34221;45.296;9.516;2023-03-01T00:15:01;36.00;;;24.90;;
47812;SDS011;34221;45.296;9.516;2023-03-01T00:15:19;36.40;;;25.30;;
47812;SDS011;34221;45.296;9.516;2023-03-01T00:15:37;36.75;;;25.40;;
47812;SDS011;34221;45.296;9.516;2023-03-01T00:15:54;37.35;;;25.13;;
47812;SDS011;34221;45.296;9.516;2023-03-01T00:16:47;38.20;;;25.20;;
47812;SDS011;34221;45.296;9.516;2023-03-01T00:17:02;34.75;;;24.63;;
47812;SDS011;34221;45.296;9.516;2023-03-01T00:17:17;37.90;;;25.10;;
47812;SDS011;34221;45.296;9.516;2023-03-01T00:17:32;39.50;;;26.00;;
47812;SDS011;34221;45.296;9.516;2023-03-01T00:17:47;36.55;;;25.75;;
47812;SDS011;34221;45.296;9.516;2023-03-01T00:18:02;34.17;;;24.98;;
47812;SDS011;34221;45.296;9.516;2023-03-01T00:18:17;34.17;;;25.48;;
47812;SDS011;34221;45.296;9.516;2023-03-01T00:18:32;37.78;;;25.75;;
47812;SDS011;34221;45.296;9.516;2023-03-01T00:18:47;39.83;;;26.30;;
47812;SDS011;34221;45.296;9.516;2023-03-01T00:19:02;40.88;;;26.27;;
47812;SDS011;34221;45.296;9.516;2023-03-01T00:19:18;39.85;;;25.45;;
47812;SDS011;34221;45.296;9.516;2023-03-01T00:19:34;37.25;;;25.00;;
47812;SDS011;34221;45.296;9.516;2023-03-01T00:19:49;37.25;;;24.65;;
47812;SDS011;34221;45.296;9.516;2023-03-01T00:20:04;41.40;;;25.27;;
47812;SDS011;34221;45.296;9.516;2023-03-01T00:20:24;39.22;;;26.27;;
47812;SDS011;34221;45.296;9.516;2023-03-01T00:20:39;34.35;;;25.65;;
47812;SDS011;34221;45.296;9.516;2023-03-01T00:20:54;34.25;;;26.02;;
47812;SDS011;34221;45.296;9.516;2023-03-01T00:21:10;36.97;;;25.80;;
47812;SDS011;34221;45.296;9.516;2023-03-01T00:21:26;39.10;;;25.63;;
47812;SDS011;34221;45.296;9.516;2023-03-01T00:21:41;37.97;;;25.15;;
47812;SDS011;34221;45.296;9.516;2023-03-01T00:21:57;35.90;;;25.20;;
47812;SDS011;34221;45.296;9.516;2023-03-01T00:22:12;36.80;;;25.80;;
47812;SDS011;34221;45.296;9.516;2023-03-01T00:22:27;39.17;;;26.00;;
47812;SDS011;34221;45.296;9.516;2023-03-01T00:22:44;39.30;;;26.25;;
47812;SDS011;34221;45.296;9.516;2023-03-01T00:22:59;39.47;;;26.45;;
47812;SDS011;34221;45.296;9.516;2023-03-01T00:23:14;36.72;;;26.25;;
47812;SDS011;34221;45.296;9.516;2023-03-01T00:23:29;38.72;;;26.02;;
47812;SDS011;34221;45.296;9.516;2023-03-01T00:23:44;39.45;;;26.17;;
47812;SDS011;34221;45.296;9.516;2023-03-01T00:23:59;38.17;;;26.52;;
47812;SDS011;34221;45.296;9.516;2023-03-01T00:24:14;38.70;;;25.92;;
47812;SDS011;34221;45.296;9.516;2023-03-01T00:24:29;37.30;;;26.02;;
47812;SDS011;34221;45.296;9.516;2023-03-01T00:24:44;34.90;;;25.65;;
47812;SDS011;34221;45.296;9.516;2023-03-01T00:24:59;35.28;;;25.73;;
47812;SDS011;34221;45.296;9.516;2023-03-01T00:25:14;38.63;;;27.02;;
47812;SDS011;34221;45.296;9.516;2023-03-01T00:25:29;41.40;;;27.85;;
47812;SDS011;34221;45.296;9.516;2023-03-01T00:25:44;41.10;;;28.23;;
47812;SDS011;34221;45.296;9.516;2023-03-01T00:25:59;37.65;;;27.52;;
47812;SDS011;34221;45.296;9.516;2023-03-01T00:26:14;35.85;;;25.67;;
47812;SDS011;34221;45.296;9.516;2023-03-01T00:26:30;37.78;;;25.25;;
47812;SDS011;34221;45.296;9.516;2023-03-01T00:26:46;38.05;;;26.40;;
47812;SDS011;34221;45.296;9.516;2023-03-01T00:27:01;36.67;;;26.55;;
47812;SDS011;34221;45.296;9.516;2023-03-01T00:27:16;35.33;;;25.80;;
47812;SDS011;34221;45.296;9.516;2023-03-01T00:27:30;35.00;;;26.48;;
47812;SDS011;34221;45.296;9.516;2023-03-01T00:27:46;37.75;;;27.27;;
47812;SDS011;34221;45.296;9.516;2023-03-01T00:28:03;39.40;;;26.02;;
47812;SDS011;34221;45.296;9.516;2023-03-01T00:28:18;37.05;;;25.48;;
47812;SDS011;34221;45.296;9.516;2023-03-01T00:28:34;35.95;;;26.40;;
47812;SDS011;34221;45.296;9.516;2023-03-01T00:28:49;38.85;;;26.55;;
47812;SDS011;34221;45.296;9.516;2023-03-01T00:29:05;41.92;;;26.52;;
47812;SDS011;34221;45.296;9.516;2023-03-01T00:29:21;39.53;;;26.40;;
47812;SDS011;34221;45.296;9.516;2023-03-01T00:29:37;36.90;;;26.67;;
47812;SDS011;34221;45.296;9.516;2023-03-01T00:29:52;36.97;;;26.98;;
47812;SDS011;34221;45.296;9.516;2023-03-01T00:30:08;37.25;;;26.98;;
47812;SDS011;34221;45.296;9.516;2023-03-01T00:30:23;37.13;;;27.08;;
47812;SDS011;34221;45.296;9.516;2023-03-01T00:30:38;39.15;;;28.15;;
47812;SDS011;34221;45.296;9.516;2023-03-01T00:30:53;38.70;;;28.03;;
47812;SDS011;34221;45.296;9.516;2023-03-01T00:31:09;38.85;;;26.85;;
47812;SDS011;34221;45.296;9.516;2023-03-01T00:31:29;38.65;;;25.45;;
47812;SDS011;34221;45.296;9.516;2023-03-01T00:31:47;37.38;;;25.50;;
47812;SDS011;34221;45.296;9.516;2023-03-01T00:32:01;39.30;;;26.40;;
47812;SDS011;34221;45.296;9.516;2023-03-01T00:32:16;40.20;;;26.80;;
47812;SDS011;34221;45.296;9.516;2023-03-01T00:32:31;35.53;;;25.83;;
47812;SDS011;34221;45.296;9.516;2023-03-01T00:32:46;35.08;;;25.02;;
47812;SDS011;34221;45.296;9.516;2023-03-01T00:33:01;36.55;;;25.30;;
47812;SDS011;34221;45.296;9.516;2023-03-01T00:33:16;36.65;;;25.45;;
47812;SDS011;34221;45.296;9.516;2023-03-01T00:33:31;39.65;;;26.77;;
47812;SDS011;34221;45.296;9.516;2023-03-01T00:33:47;41.80;;;28.15;;
47812;SDS011;34221;45.296;9.516;2023-03-01T00:34:03;41.70;;;27.88;;
47812;SDS011;34221;45.296;9.516;2023-03-01T00:34:19;39.30;;;27.15;;
47812;SDS011;34221;45.296;9.516;2023-03-01T00:34:34;40.08;;;26.52;;
47812;SDS011;34221;45.296;9.516;2023-03-01T00:34:49;40.08;;;26.95;;
47812;SDS011;34221;45.296;9.516;2023-03-01T00:35:09;37.03;;;26.30;;
47812;SDS011;34221;45.296;9.516;2023-03-01T00:35:24;36.28;;;25.63;;
47812;SDS011;34221;45.296;9.516;2023-03-01T00:35:39;34.28;;;25.05;;
47812;SDS011;34221;45.296;9.516;2023-03-01T00:35:54;35.53;;;25.65;;
47812;SDS011;34221;45.296;9.516;2023-03-01T00:36:13;36.88;;;26.02;;
47812;SDS011;34221;45.296;9.516;2023-03-01T00:36:33;34.60;;;25.48;;
47812;SDS011;34221;45.296;9.516;2023-03-01T00:36:51;35.88;;;25.42;;
47812;SDS011;34221;45.296;9.516;2023-03-01T00:37:06;35.60;;;25.63;;
47812;SDS011;34221;45.296;9.516;2023-03-01T00:37:21;36.38;;;25.88;;
47812;SDS011;34221;45.296;9.516;2023-03-01T00:37:37;39.03;;;26.92;;
47812;SDS011;34221;45.296;9.516;2023-03-01T00:37:51;42.83;;;27.58;;
47812;SDS011;34221;45.296;9.516;2023-03-01T00:38:11;41.00;;;26.52;;
47812;SDS011;34221;45.296;9.516;2023-03-01T00:38:27;38.85;;;26.38;;
47812;SDS011;34221;45.296;9.516;2023-03-01T00:38:43;37.08;;;26.77;;
47812;SDS011;34221;45.296;9.516;2023-03-01T00:38:59;40.78;;;27.27;;
47812;SDS011;34221;45.296;9.516;2023-03-01T00:39:14;43.45;;;27.52;;
47812;SDS011;34221;45.296;9.516;2023-03-01T00:39:30;42.58;;;26.52;;
47812;SDS011;34221;45.296;9.516;2023-03-01T00:39:47;40.47;;;26.15;;
47812;SDS011;34221;45.296;9.516;2023-03-01T00:40:03;44.17;;;26.38;;
47812;SDS011;34221;45.296;9.516;2023-03-01T00:40:20;37.80;;;24.90;;
47812;SDS011;34221;45.296;9.516;2023-03-01T00:40:35;35.88;;;25.40;;
47812;SDS011;34221;45.296;9.516;2023-03-01T00:40:51;39.22;;;26.23;;
47812;SDS011;34221;45.296;9.516;2023-03-01T00:41:13;38.90;;;25.95;;
47812;SDS011;34221;45.296;9.516;2023-03-01T00:41:30;36.53;;;25.42;;
47812;SDS011;34221;45.296;9.516;2023-03-01T00:41:45;38.42;;;25.98;;
47812;SDS011;34221;45.296;9.516;2023-03-01T00:42:00;38.58;;;26.58;;
47812;SDS011;34221;45.296;9.516;2023-03-01T00:42:16;37.42;;;27.17;;
47812;SDS011;34221;45.296;9.516;2023-03-01T00:42:31;39.35;;;27.17;;
47812;SDS011;34221;45.296;9.516;2023-03-01T00:42:46;42.80;;;27.13;;
47812;SDS011;34221;45.296;9.516;2023-03-01T00:43:01;44.05;;;27.23;;
47812;SDS011;34221;45.296;9.516;2023-03-01T00:43:18;41.45;;;27.10;;
47812;SDS011;34221;45.296;9.516;2023-03-01T00:43:33;39.65;;;27.30;;
47812;SDS011;34221;45.296;9.516;2023-03-01T00:43:50;39.78;;;27.17;;
47812;SDS011;34221;45.296;9.516;2023-03-01T00:44:05;39.67;;;27.33;;
47812;SDS011;34221;45.296;9.516;2023-03-01T00:44:20;39.95;;;27.17;;
47812;SDS011;34221;45.296;9.516;2023-03-01T00:44:35;40.25;;;27.23;;
47812;SDS011;34221;45.296;9.516;2023-03-01T00:44:50;40.42;;;27.63;;
47812;SDS011;34221;45.296;9.516;2023-03-01T00:45:05;35.95;;;25.83;;
47812;SDS011;34221;45.296;9.516;2023-03-01T00:45:22;37.03;;;25.88;;
47812;SDS011;34221;45.296;9.516;2023-03-01T00:45:37;38.47;;;27.33;;
47812;SDS011;34221;45.296;9.516;2023-03-01T00:45:52;38.57;;;27.10;;
47812;SDS011;34221;45.296;9.516;2023-03-01T00:46:08;38.70;;;26.83;;
47812;SDS011;34221;45.296;9.516;2023-03-01T00:46:28;35.92;;;26.05;;
47812;SDS011;34221;45.296;9.516;2023-03-01T00:46:44;39.90;;;27.05;;
47812;SDS011;34221;45.296;9.516;2023-03-01T00:46:59;39.60;;;27.48;;
47812;SDS011;34221;45.296;9.516;2023-03-01T00:47:14;37.45;;;26.17;;
47812;SDS011;34221;45.296;9.516;2023-03-01T00:47:29;38.28;;;26.77;;
47812;SDS011;34221;45.296;9.516;2023-03-01T00:47:44;40.13;;;27.95;;
47812;SDS011;34221;45.296;9.516;2023-03-01T00:47:59;40.00;;;27.33;;
47812;SDS011;34221;45.296;9.516;2023-03-01T00:48:14;38.97;;;27.10;;
47812;SDS011;34221;45.296;9.516;2023-03-01T00:48:29;37.63;;;27.50;;
47812;SDS011;34221;45.296;9.516;2023-03-01T00:48:44;36.40;;;26.60;;
47812;SDS011;34221;45.296;9.516;2023-03-01T00:48:59;38.42;;;26.70;;
47812;SDS011;34221;45.296;9.516;2023-03-01T00:49:16;38.00;;;27.83;;
47812;SDS011;34221;45.296;9.516;2023-03-01T00:49:31;37.55;;;27.55;;
47812;SDS011;34221;45.296;9.516;2023-03-01T00:49:46;39.88;;;28.17;;
47812;SDS011;34221;45.296;9.516;2023-03-01T00:50:01;41.30;;;28.23;;
47812;SDS011;34221;45.296;9.516;2023-03-01T00:50:16;46.47;;;27.35;;
47812;SDS011;34221;45.296;9.516;2023-03-01T00:50:32;45.17;;;27.27;;
47812;SDS011;34221;45.296;9.516;2023-03-01T00:50:47;39.97;;;27.38;;
47812;SDS011;34221;45.296;9.516;2023-03-01T00:51:15;40.33;;;28.30;;
47812;SDS011;34221;45.296;9.516;2023-03-01T00:51:35;37.88;;;27.88;;
47812;SDS011;34221;45.296;9.516;2023-03-01T00:51:50;42.47;;;27.23;;
47812;SDS011;34221;45.296;9.516;2023-03-01T00:52:05;42.03;;;27.00;;
47812;SDS011;34221;45.296;9.516;2023-03-01T00:52:20;37.13;;;26.33;;
47812;SDS011;34221;45.296;9.516;2023-03-01T00:52:35;38.65;;;27.00;;
47812;SDS011;34221;45.296;9.516;2023-03-01T00:52:54;38.60;;;27.62;;
47812;SDS011;34221;45.296;9.516;2023-03-01T00:53:10;37.58;;;27.20;;
47812;SDS011;34221;45.296;9.516;2023-03-01T00:53:25;38.35;;;25.85;;
47812;SDS011;34221;45.296;9.516;2023-03-01T00:53:40;37.47;;;25.38;;
47812;SDS011;34221;45.296;9.516;2023-03-01T00:53:57;34.97;;;26.00;;
47812;SDS011;34221;45.296;9.516;2023-03-01T00:54:15;35.65;;;26.42;;
47812;SDS011;34221;45.296;9.516;2023-03-01T00:54:30;36.25;;;26.58;;
47812;SDS011;34221;45.296;9.516;2023-03-01T00:54:45;34.28;;;26.05;;
47812;SDS011;34221;45.296;9.516;2023-03-01T00:55:00;37.58;;;26.58;;
47812;SDS011;34221;45.296;9.516;2023-03-01T00:55:16;42.65;;;27.10;;
47812;SDS011;34221;45.296;9.516;2023-03-01T00:55:51;37.70;;;27.20;;
47812;SDS011;34221;45.296;9.516;2023-03-01T00:56:07;35.78;;;26.63;;
47812;SDS011;34221;45.296;9.516;2023-03-01T00:56:24;37.47;;;26.27;;
47812;SDS011;34221;45.296;9.516;2023-03-01T00:56:39;40.80;;;27.02;;
47812;SDS011;34221;45.296;9.516;2023-03-01T00:56:54;42.38;;;27.20;;
47812;SDS011;34221;45.296;9.516;2023-03-01T00:57:09;41.90;;;27.42;;
47812;SDS011;34221;45.296;9.516;2023-03-01T00:57:24;40.25;;;27.38;;
47812;SDS011;34221;45.296;9.516;2023-03-01T00:57:39;39.50;;;27.25;;
47812;SDS011;34221;45.296;9.516;2023-03-01T00:57:55;38.95;;;26.80;;
47812;SDS011;34221;45.296;9.516;2023-03-01T00:58:10;40.00;;;26.58;;
47812;SDS011;34221;45.296;9.516;2023-03-01T00:58:25;39.67;;;26.98;;
47812;SDS011;34221;45.296;9.516;2023-03-01T00:58:40;41.33;;;27.42;;
47812;SDS011;34221;45.296;9.516;2023-03-01T00:58:56;41.97;;;27.70;;
47812;SDS011;34221;45.296;9.516;2023-03-01T00:59:11;40.03;;;27.10;;
47812;SDS011;34221;45.296;9.516;2023-03-01T00:59:27;39.72;;;26.15;;
47812;SDS011;34221;45.296;9.516;2023-03-01T00:59:42;39.67;;;26.75;;
47812;SDS011;34221;45.296;9.516;2023-03-01T00:59:57;39.42;;;27.50;;
47812;SDS011;34221;45.296;9.516;2023-03-01T01:00:13;37.30;;;27.08;;
47812;SDS011;34221;45.296;9.516;2023-03-01T01:00:29;36.30;;;26.25;;
47812;SDS011;34221;45.296;9.516;2023-03-01T01:00:44;39.15;;;26.23;;
47812;SDS011;34221;45.296;9.516;2023-03-01T01:00:58;38.53;;;26.25;;
47812;SDS011;34221;45.296;9.516;2023-03-01T01:01:18;37.03;;;26.23;;
47812;SDS011;34221;45.296;9.516;2023-03-01T01:01:37;38.95;;;26.27;;
47812;SDS011;34221;45.296;9.516;2023-03-01T01:01:52;35.45;;;25.38;;
47812;SDS011;34221;45.296;9.516;2023-03-01T01:02:07;33.10;;;25.23;;
47812;SDS011;34221;45.296;9.516;2023-03-01T01:02:22;34.67;;;27.02;;
47812;SDS011;34221;45.296;9.516;2023-03-01T01:02:37;33.95;;;26.33;;
47812;SDS011;34221;45.296;9.516;2023-03-01T01:02:52;34.55;;;25.35;;
47812;SDS011;34221;45.296;9.516;2023-03-01T01:03:07;37.92;;;26.25;;
47812;SDS011;34221;45.296;9.516;2023-03-01T01:03:22;36.67;;;25.17;;
47812;SDS011;34221;45.296;9.516;2023-03-01T01:03:39;34.83;;;24.73;;
47812;SDS011;34221;45.296;9.516;2023-03-01T01:03:58;34.83;;;25.08;;
47812;SDS011;34221;45.296;9.516;2023-03-01T01:04:16;36.78;;;26.17;;
47812;SDS011;34221;45.296;9.516;2023-03-01T01:04:31;37.30;;;25.60;;
47812;SDS011;34221;45.296;9.516;2023-03-01T01:04:46;38.03;;;25.40;;
47812;SDS011;34221;45.296;9.516;2023-03-01T01:05:01;37.10;;;25.40;;
47812;SDS011;34221;45.296;9.516;2023-03-01T01:05:16;37.72;;;24.92;;
47812;SDS011;34221;45.296;9.516;2023-03-01T01:05:35;38.40;;;25.48;;
47812;SDS011;34221;45.296;9.516;2023-03-01T01:05:51;34.30;;;25.10;;
47812;SDS011;34221;45.296;9.516;2023-03-01T01:06:12;34.60;;;26.02;;
47812;SDS011;34221;45.296;9.516;2023-03-01T01:06:45;36.17;;;25.85;;
47812;SDS011;34221;45.296;9.516;2023-03-01T01:07:00;37.60;;;25.50;;
47812;SDS011;34221;45.296;9.516;2023-03-01T01:07:15;38.85;;;25.70;;
47812;SDS011;34221;45.296;9.516;2023-03-01T01:07:30;37.45;;;25.42;;
47812;SDS011;34221;45.296;9.516;2023-03-01T01:07:46;37.33;;;25.63;;
47812;SDS011;34221;45.296;9.516;2023-03-01T01:08:02;37.67;;;26.38;;
47812;SDS011;34221;45.296;9.516;2023-03-01T01:08:17;37.63;;;26.17;;
47812;SDS011;34221;45.296;9.516;2023-03-01T01:08:34;35.78;;;24.95;;
47812;SDS011;34221;45.296;9.516;2023-03-01T01:08:49;36.92;;;25.38;;
47812;SDS011;34221;45.296;9.516;2023-03-01T01:09:06;36.53;;;25.45;;
47812;SDS011;34221;45.296;9.516;2023-03-01T01:09:21;35.15;;;25.13;;
47812;SDS011;34221;45.296;9.516;2023-03-01T01:09:36;34.37;;;25.10;;
47812;SDS011;34221;45.296;9.516;2023-03-01T01:09:51;36.63;;;25.08;;
47812;SDS011;34221;45.296;9.516;2023-03-01T01:10:06;35.07;;;24.60;;
47812;SDS011;34221;45.296;9.516;2023-03-01T01:10:21;32.90;;;24.75;;
47812;SDS011;34221;45.296;9.516;2023-03-01T01:10:36;36.38;;;25.88;;
47812;SDS011;34221;45.296;9.516;2023-03-01T01:10:51;41.08;;;26.55;;
47812;SDS011;34221;45.296;9.516;2023-03-01T01:11:08;42.55;;;27.10;;
47812;SDS011;34221;45.296;9.516;2023-03-01T01:11:25;39.88;;;26.65;;
47812;SDS011;34221;45.296;9.516;2023-03-01T01:11:44;34.83;;;24.52;;
47812;SDS011;34221;45.296;9.516;2023-03-01T01:12:04;35.30;;;23.30;;
47812;SDS011;34221;45.296;9.516;2023-03-01T01:12:20;37.17;;;24.95;;
47812;SDS011;34221;45.296;9.516;2023-03-01T01:12:35;36.25;;;26.27;;
47812;SDS011;34221;45.296;9.516;2023-03-01T01:12:50;38.28;;;26.17;;
47812;SDS011;34221;45.296;9.516;2023-03-01T01:13:05;40.42;;;26.23;;
47812;SDS011;34221;45.296;9.516;2023-03-01T01:13:20;39.10;;;26.38;;
47812;SDS011;34221;45.296;9.516;2023-03-01T01:13:37;38.03;;;26.52;;
47812;SDS011;34221;45.296;9.516;2023-03-01T01:13:53;39.20;;;27.48;;
47812;SDS011;34221;45.296;9.516;2023-03-01T01:14:09;39.00;;;27.13;;
47812;SDS011;34221;45.296;9.516;2023-03-01T01:14:24;39.55;;;26.35;;
47812;SDS011;34221;45.296;9.516;2023-03-01T01:14:39;41.85;;;27.08;;
47812;SDS011;34221;45.296;9.516;2023-03-01T01:14:53;40.90;;;27.20;;
47812;SDS011;34221;45.296;9.516;2023-03-01T01:15:08;37.47;;;26.48;;
47812;SDS011;34221;45.296;9.516;2023-03-01T01:15:26;36.50;;;26.55;;
47812;SDS011;34221;45.296;9.516;2023-03-01T01:15:41;38.17;;;26.55;;
47812;SDS011;34221;45.296;9.516;2023-03-01T01:16:00;37.33;;;26.08;;
47812;SDS011;34221;45.296;9.516;2023-03-01T01:16:16;39.42;;;27.55;;
47812;SDS011;34221;45.296;9.516;2023-03-01T01:16:33;42.42;;;28.45;;
47812;SDS011;34221;45.296;9.516;2023-03-01T01:16:49;40.45;;;28.45;;
47812;SDS011;34221;45.296;9.516;2023-03-01T01:17:05;40.53;;;27.63;;
47812;SDS011;34221;45.296;9.516;2023-03-01T01:17:20;42.78;;;28.35;;
47812;SDS011;34221;45.296;9.516;2023-03-01T01:17:35;41.50;;;28.17;;
47812;SDS011;34221;45.296;9.516;2023-03-01T01:17:50;39.67;;;28.13;;
47812;SDS011;34221;45.296;9.516;2023-03-01T01:18:05;40.20;;;29.38;;
47812;SDS011;34221;45.296;9.516;2023-03-01T01:18:20;41.55;;;29.05;;
47812;SDS011;34221;45.296;9.516;2023-03-01T01:18:35;41.22;;;27.95;;
47812;SDS011;34221;45.296;9.516;2023-03-01T01:18:50;40.50;;;27.40;;
47812;SDS011;34221;45.296;9.516;2023-03-01T01:19:06;40.88;;;28.30;;
47812;SDS011;34221;45.296;9.516;2023-03-01T01:19:21;40.80;;;28.45;;
47812;SDS011;34221;45.296;9.516;2023-03-01T01:19:37;40.38;;;27.13;;
47812;SDS011;34221;45.296;9.516;2023-03-01T01:19:52;40.40;;;27.23;;
47812;SDS011;34221;45.296;9.516;2023-03-01T01:20:07;42.47;;;27.50;;
47812;SDS011;34221;45.296;9.516;2023-03-01T01:20:23;42.83;;;28.05;;
47812;SDS011;34221;45.296;9.516;2023-03-01T01:20:38;42.05;;;28.83;;
47812;SDS011;34221;45.296;9.516;2023-03-01T01:20:53;43.03;;;28.42;;
47812;SDS011;34221;45.296;9.516;2023-03-01T01:21:09;42.55;;;27.67;;
47812;SDS011;34221;45.296;9.516;2023-03-01T01:21:30;41.78;;;27.90;;
47812;SDS011;34221;45.296;9.516;2023-03-01T01:21:45;41.25;;;28.02;;
47812;SDS011;34221;45.296;9.516;2023-03-01T01:22:02;41.10;;;28.80;;
47812;SDS011;34221;45.296;9.516;2023-03-01T01:22:17;41.58;;;28.90;;
47812;SDS011;34221;45.296;9.516;2023-03-01T01:22:32;40.22;;;28.88;;
47812;SDS011;34221;45.296;9.516;2023-03-01T01:22:47;40.92;;;28.40;;
47812;SDS011;34221;45.296;9.516;2023-03-01T01:23:02;38.58;;;26.63;;
47812;SDS011;34221;45.296;9.516;2023-03-01T01:23:20;37.85;;;27.30;;
47812;SDS011;34221;45.296;9.516;2023-03-01T01:23:36;39.05;;;27.98;;
47812;SDS011;34221;45.296;9.516;2023-03-01T01:23:54;37.53;;;27.90;;
47812;SDS011;34221;45.296;9.516;2023-03-01T01:24:09;41.60;;;29.17;;
47812;SDS011;34221;45.296;9.516;2023-03-01T01:24:25;41.08;;;29.10;;
47812;SDS011;34221;45.296;9.516;2023-03-01T01:24:40;41.50;;;28.50;;
47812;SDS011;34221;45.296;9.516;2023-03-01T01:24:55;43.15;;;28.80;;
47812;SDS011;34221;45.296;9.516;2023-03-01T01:25:10;41.20;;;28.42;;
47812;SDS011;34221;45.296;9.516;2023-03-01T01:25:25;40.88;;;28.83;;
47812;SDS011;34221;45.296;9.516;2023-03-01T01:25:40;42.05;;;29.42;;
47812;SDS011;34221;45.296;9.516;2023-03-01T01:25:55;42.35;;;29.27;;
47812;SDS011;34221;45.296;9.516;2023-03-01T01:26:11;40.55;;;29.15;;
47812;SDS011;34221;45.296;9.516;2023-03-01T01:26:30;39.28;;;28.35;;
47812;SDS011;34221;45.296;9.516;2023-03-01T01:26:47;41.10;;;27.02;;
47812;SDS011;34221;45.296;9.516;2023-03-01T01:27:02;45.10;;;27.90;;
47812;SDS011;34221;45.296;9.516;2023-03-01T01:27:17;44.15;;;28.67;;
47812;SDS011;34221;45.296;9.516;2023-03-01T01:27:32;44.15;;;28.38;;
47812;SDS011;34221;45.296;9.516;2023-03-01T01:27:47;45.67;;;28.90;;
47812;SDS011;34221;45.296;9.516;2023-03-01T01:28:02;45.85;;;29.90;;
47812;SDS011;34221;45.296;9.516;2023-03-01T01:28:17;43.08;;;28.80;;
47812;SDS011;34221;45.296;9.516;2023-03-01T01:28:34;42.22;;;28.10;;
47812;SDS011;34221;45.296;9.516;2023-03-01T01:28:49;42.30;;;28.50;;
47812;SDS011;34221;45.296;9.516;2023-03-01T01:29:05;39.42;;;27.45;;
47812;SDS011;34221;45.296;9.516;2023-03-01T01:29:21;40.50;;;27.52;;
47812;SDS011;34221;45.296;9.516;2023-03-01T01:29:36;42.75;;;28.65;;
47812;SDS011;34221;45.296;9.516;2023-03-01T01:29:52;40.70;;;28.38;;
47812;SDS011;34221;45.296;9.516;2023-03-01T01:30:08;41.80;;;28.42;;
47812;SDS011;34221;45.296;9.516;2023-03-01T01:30:23;40.45;;;28.00;;
47812;SDS011;34221;45.296;9.516;2023-03-01T01:30:39;37.45;;;27.08;;
47812;SDS011;34221;45.296;9.516;2023-03-01T01:30:54;40.30;;;27.73;;
47812;SDS011;34221;45.296;9.516;2023-03-01T01:31:09;39.47;;;27.92;;
47812;SDS011;34221;45.296;9.516;2023-03-01T01:31:24;40.20;;;28.27;;
47812;SDS011;34221;45.296;9.516;2023-03-01T01:31:41;42.65;;;29.00;;
47812;SDS011;34221;45.296;9.516;2023-03-01T01:31:57;42.75;;;29.23;;
47812;SDS011;34221;45.296;9.516;2023-03-01T01:32:12;44.13;;;29.60;;
47812;SDS011;34221;45.296;9.516;2023-03-01T01:32:27;42.05;;;28.92;;
47812;SDS011;34221;45.296;9.516;2023-03-01T01:32:42;38.30;;;27.66;;
47812;SDS011;34221;45.296;9.516;2023-03-01T01:32:57;40.95;;;28.38;;
47812;SDS011;34221;45.296;9.516;2023-03-01T01:33:12;43.60;;;28.80;;
47812;SDS011;34221;45.296;9.516;2023-03-01T01:33:27;45.30;;;29.50;;
47812;SDS011;34221;45.296;9.516;2023-03-01T01:33:42;45.20;;;30.15;;
47812;SDS011;34221;45.296;9.516;2023-03-01T01:33:58;41.50;;;28.65;;
47812;SDS011;34221;45.296;9.516;2023-03-01T01:34:16;42.15;;;28.52;;
47812;SDS011;34221;45.296;9.516;2023-03-01T01:34:34;41.17;;;28.40;;
47812;SDS011;34221;45.296;9.516;2023-03-01T01:35:24;40.97;;;28.83;;